Portada
METAR-TAF:

METAR-TAF

Aeroports :

Parsons, Tennessee, Estats Units d'Amèrica

latitud: 35-39-23N, longitud: 088-11-43W, altitud: 149 m

Observació

L'informe es va fer fa 28 minuts, a les 12:10 UTC
Vent calma
Temperatura 21°C
Humitat 100%
Pressió 1025 hPa
Visibilitat: 16.1 km
Cel clar

METAR: KPVE 201210Z AUTO 00000KT 10SM CLR 21/21 A3027 RMK A01

Hora: 07:38 (12:38 UTC)


TAF: manca

Observacions i pronòstics meteorològics de més de 4000 aeroports (METAR i TAF).

Les estacions disponibles són els punts grocs i vermells al mapa.

Posi el ratolí al punt desitjat per veure el nom de l'estació.

Feu clic per veure les observacions i els pronòstics meteorològics.

Per canviar el mapa: feu clic els botons verds amb una creu de color negre per apropar; al botó verd amb un guió per allunyar la imatge; o en les fletxes verdes per a mapes adjacents.


METAR-TAF: